Time;durP1;ratioP1;P1;durP2;ratioP2;P2;SDS_P1;SDS_P2;PMS_P1;PMS_P2;Temp;Humidity;BMP_temperature;BMP_pressure;BME280_temperature;BME280_humidity;BME280_pressure;Samples;Min_cycle;Max_cycle;Signal;HPM_P1;HPM_P2
2021/10/02 00:41:33;;;;;;;1.80;1.17;;;;;;;11.87;83.62;100869.94;5076125;28;20059;-82
2021/10/02 00:45:55;;;;;;;4.57;1.73;;;;;;;11.83;84.57;100867.63;5070169;28;20123;-81
2021/10/02 00:48:20;;;;;;;1.93;1.30;;;;;;;11.78;84.65;100861.13;5053454;28;20194;-82
2021/10/02 00:50:47;;;;;;;4.07;1.40;;;;;;;11.74;85.76;100865.13;5069704;28;20096;-81
2021/10/02 00:53:13;;;;;;;;;;;;;;;11.70;86.09;100863.78;5071568;28;20190;-81
2021/10/02 00:55:39;;;;;;;6.88;1.77;;;;;;;11.60;86.80;100869.28;5072934;28;19912;-81
2021/10/02 00:58:05;;;;;;;3.38;1.48;;;;;;;11.57;87.08;100858.94;5073950;28;20063;-82
2021/10/02 01:00:31;;;;;;;4.93;1.60;;;;;;;11.59;87.53;100862.28;5056731;28;20040;-82
2021/10/02 01:03:24;;;;;;;3.03;1.08;;;;;;;11.57;88.53;100858.94;5056587;28;20040;-83
2021/10/02 01:05:56;;;;;;;6.30;1.88;;;;;;;11.51;89.18;100855.06;5073751;28;20051;-83
2021/10/02 01:08:43;;;;;;;5.20;1.67;;;;;;;11.52;88.92;100856.75;5074164;28;20040;-83
2021/10/02 01:11:24;;;;;;;5.38;1.73;;;;;;;11.50;89.98;100863.28;5072464;28;20043;-83
2021/10/02 01:14:06;;;;;;;3.58;1.52;;;;;;;11.48;89.66;100870.63;5056015;28;20431;-83
2021/10/02 01:16:37;;;;;;;5.65;2.63;;;;;;;11.47;90.37;100876.97;5072029;28;20036;-81
2021/10/02 01:19:06;;;;;;;3.08;2.10;;;;;;;11.34;91.43;100870.25;5038830;28;20032;-82
2021/10/02 01:21:56;;;;;;;3.33;1.67;;;;;;;11.34;92.05;100872.09;5072785;28;20064;-82
2021/10/02 01:24:59;;;;;;;4.45;1.95;;;;;;;11.29;92.64;100869.94;5072986;28;20052;-81
2021/10/02 01:27:48;;;;;;;4.45;2.20;;;;;;;11.30;92.43;100866.25;4972081;28;20044;-84
2021/10/02 01:31:06;;;;;;;4.30;2.05;;;;;;;11.34;92.43;100853.41;4972534;28;20118;-83
2021/10/02 01:33:32;;;;;;;4.68;1.67;;;;;;;11.38;92.47;100847.56;5045192;28;20052;-84
2021/10/02 01:47:15;;;;;;;4.50;1.88;;;;;;;11.41;93.54;100849.88;5071800;28;20070;-84
2021/10/02 01:49:55;;;;;;;8.25;2.30;;;;;;;11.39;93.86;100841.19;5054907;28;20527;-83
2021/10/02 01:52:25;;;;;;;4.22;2.25;;;;;;;11.43;94.13;100844.38;5037438;28;20032;-81
2021/10/02 01:54:56;;;;;;;3.22;1.80;;;;;;;11.41;94.25;100849.88;5053872;28;20041;-79
2021/10/02 01:57:27;;;;;;;7.18;2.20;;;;;;;11.34;94.99;100856.91;5070776;28;20039;-79
2021/10/02 01:59:55;;;;;;;4.47;2.40;;;;;;;11.27;95.59;100857.72;5070796;28;20041;-80
2021/10/02 02:02:25;;;;;;;4.32;2.30;;;;;;;11.30;95.68;100852.88;5069833;28;20042;-79
2021/10/02 02:04:53;;;;;;;5.00;2.15;;;;;;;11.34;95.52;100851.56;5051775;28;20062;-81
2021/10/02 02:07:21;;;;;;;3.88;2.08;;;;;;;11.27;95.26;100847.88;5070577;28;20036;-79
2021/10/02 02:09:49;;;;;;;6.25;2.80;;;;;;;11.23;95.78;100841.16;5069122;28;20036;-80
2021/10/02 02:12:17;;;;;;;4.45;1.70;;;;;;;11.27;96.06;100853.22;5069559;28;20097;-80
2021/10/02 02:14:44;;;;;;;5.63;1.90;;;;;;;11.29;96.02;100855.72;5053007;28;20028;-80
2021/10/02 02:17:11;;;;;;;6.25;2.55;;;;;;;11.26;95.98;100843.53;5062265;28;20032;-81
2021/10/02 02:19:38;;;;;;;8.75;2.17;;;;;;;11.29;96.17;100845.03;5052582;28;20408;-80
2021/10/02 02:22:04;;;;;;;5.80;2.35;;;;;;;11.31;95.98;100830.50;5053113;28;20041;-82
2021/10/02 02:24:31;;;;;;;;;;;;;;;11.35;96.02;100839.84;5070553;28;20037;-82
2021/10/02 02:26:57;;;;;;;8.50;2.60;;;;;;;11.27;96.01;100826.50;5070211;28;20336;-81
2021/10/02 02:29:23;;;;;;;6.25;2.97;;;;;;;11.28;96.46;100830.81;5052879;28;20437;-81
2021/10/02 02:31:49;;;;;;;4.93;2.10;;;;;;;11.29;96.71;100824.50;5069426;28;20044;-81
2021/10/02 02:34:15;;;;;;;4.35;2.30;;;;;;;11.33;96.95;100831.19;5070638;28;20032;-81
2021/10/02 02:36:41;;;;;;;7.75;3.33;;;;;;;11.31;97.30;100830.50;5069117;28;20097;-80
2021/10/02 02:39:07;;;;;;;7.53;2.90;;;;;;;11.37;97.77;100840.53;5069369;28;20090;-79
2021/10/02 02:41:32;;;;;;;6.17;3.43;;;;;;;11.24;98.86;100836.66;5052183;28;20028;-80
2021/10/02 02:43:58;;;;;;;6.97;2.63;;;;;;;11.30;98.98;100844.84;5051619;28;20120;-79
2021/10/02 02:46:36;;;;;;;8.23;3.53;;;;;;;11.23;100.00;100849.19;5069139;28;20028;-80
2021/10/02 02:49:10;;;;;;;4.63;2.83;;;;;;;11.20;100.00;100847.69;5051599;28;20047;-79
2021/10/02 02:52:07;;;;;;;13.02;4.05;;;;;;;11.19;100.00;100856.72;5051934;28;20064;-80
2021/10/02 02:55:09;;;;;;;9.27;4.30;;;;;;;11.13;100.00;100853.84;5062933;28;20438;-79
2021/10/02 02:57:42;;;;;;;19.48;5.60;;;;;;;11.08;100.00;100853.50;5055396;28;20128;-79
2021/10/02 03:00:10;;;;;;;9.55;5.32;;;;;;;11.08;100.00;100865.03;5051215;28;20359;-79
2021/10/02 03:02:38;;;;;;;11.85;5.70;;;;;;;10.98;100.00;100859.84;5051527;28;20143;-79
2021/10/02 03:05:05;;;;;;;9.73;6.03;;;;;;;10.94;100.00;100874.50;5068819;28;20036;-78
2021/10/02 03:07:33;;;;;;;11.93;7.38;;;;;;;10.90;100.00;100873.16;5068559;28;20036;-81
2021/10/02 03:10:01;;;;;;;14.25;7.43;;;;;;;10.83;100.00;100865.94;5068909;28;20024;-81
2021/10/02 03:12:31;;;;;;;19.27;8.93;;;;;;;10.88;100.00;100867.13;5069967;28;20511;-79
2021/10/02 03:14:59;;;;;;;16.48;7.93;;;;;;;10.90;100.00;100873.16;5069363;28;20089;-82
2021/10/02 03:17:27;;;;;;;16.77;8.45;;;;;;;10.88;100.00;100867.13;5069326;28;20043;-78
2021/10/02 03:19:53;;;;;;;14.30;8.20;;;;;;;10.81;100.00;100862.59;5067443;28;20126;-78
2021/10/02 03:22:19;;;;;;;15.38;8.90;;;;;;;10.81;100.00;100859.94;5051187;28;20457;-77
2021/10/02 03:24:46;;;;;;;18.42;9.73;;;;;;;10.74;100.00;100865.06;5068397;28;20548;-78
2021/10/02 03:27:12;;;;;;;16.33;9.57;;;;;;;10.73;100.00;100864.25;5034296;28;20412;-78
2021/10/02 03:29:39;;;;;;;19.90;10.27;;;;;;;10.70;100.00;100855.69;5068525;28;20028;-77
2021/10/02 03:32:06;;;;;;;20.10;11.70;;;;;;;10.75;100.00;100866.75;5068795;28;20362;-79
2021/10/02 03:34:33;;;;;;;21.42;11.70;;;;;;;10.70;100.00;100847.69;5068763;28;20038;-80
2021/10/02 03:36:58;;;;;;;22.75;11.38;;;;;;;10.71;100.00;100836.84;5068593;28;20646;-81
2021/10/02 03:39:24;;;;;;;19.90;10.90;;;;;;;10.74;100.00;100836.53;5068743;28;20037;-80
2021/10/02 03:42:06;;;;;;;21.77;12.27;;;;;;;10.75;100.00;100840.88;5068263;28;20787;-82
2021/10/02 03:44:31;;;;;;;20.83;11.10;;;;;;;10.76;100.00;100836.38;5051507;28;20097;-82
2021/10/02 03:46:57;;;;;;;22.50;11.20;;;;;;;10.77;100.00;100830.88;5051817;28;20384;-85
2021/10/02 03:49:22;;;;;;;20.03;12.10;;;;;;;10.66;100.00;100799.13;5069418;28;20470;-85
2021/10/02 03:51:48;;;;;;;19.07;11.30;;;;;;;10.85;100.00;100815.88;5052091;28;20071;-85
2021/10/02 03:54:13;;;;;;;26.43;11.83;;;;;;;10.78;100.00;100802.34;5052724;28;20366;-86
2021/10/02 03:56:38;;;;;;;23.27;11.90;;;;;;;10.75;100.00;100810.69;5052881;28;20032;-86
2021/10/02 03:59:04;;;;;;;22.87;13.57;;;;;;;10.68;100.00;100799.81;5053158;28;20040;-86
2021/10/02 04:01:29;;;;;;;23.85;12.05;;;;;;;10.77;100.00;100809.53;5036676;28;20840;-86
2021/10/02 04:03:55;;;;;;;23.20;12.90;;;;;;;10.77;100.00;100795.34;5053024;28;20113;-87
2021/10/02 04:06:20;;;;;;;19.47;11.00;;;;;;;10.73;100.00;100802.00;5054990;28;20045;-90
2021/10/02 04:08:46;;;;;;;22.70;12.68;;;;;;;10.74;100.00;100782.28;5080370;28;20048;-89
2021/10/02 04:11:12;;;;;;;27.07;13.90;;;;;;;10.77;100.00;100787.31;5081380;28;20036;-90
2021/10/02 04:13:37;;;;;;;20.23;12.07;;;;;;;10.82;100.00;100790.34;5062113;28;20044;-90
2021/10/02 04:16:03;;;;;;;20.73;12.32;;;;;;;10.88;100.00;100784.31;5057764;28;20097;-90
2021/10/02 04:18:29;;;;;;;18.70;12.10;;;;;;;10.80;100.00;100773.63;5072366;28;20103;-90
2021/10/02 04:20:54;;;;;;;20.60;11.75;;;;;;;10.81;100.00;100772.63;5055903;28;20036;-90
2021/10/02 04:23:20;;;;;;;25.27;12.83;;;;;;;10.78;100.00;100767.63;5071345;28;20048;-89
2021/10/02 04:25:45;;;;;;;21.33;11.97;;;;;;;10.73;100.00;100762.75;5071656;28;20043;-87
2021/10/02 04:28:11;;;;;;;18.37;11.40;;;;;;;10.81;100.00;100777.13;5055243;28;20028;-86
2021/10/02 04:30:36;;;;;;;21.20;12.40;;;;;;;10.76;100.00;100770.44;5057296;28;20534;-88
2021/10/02 04:33:02;;;;;;;19.70;11.50;;;;;;;10.70;100.00;100775.59;5074851;28;20090;-87
2021/10/02 04:35:27;;;;;;;23.57;12.57;;;;;;;10.73;100.00;100776.13;5073235;28;20036;-87
2021/10/02 04:37:53;;;;;;;25.90;14.02;;;;;;;10.70;100.00;100770.25;5073192;28;20040;-87
2021/10/02 04:40:19;;;;;;;22.25;11.77;;;;;;;10.62;100.00;100772.91;5056337;28;20032;-86
2021/10/02 04:42:44;;;;;;;22.85;12.05;;;;;;;10.63;100.00;100782.59;5074017;28;20148;-86
2021/10/02 04:45:10;;;;;;;19.57;11.37;;;;;;;10.72;100.00;100789.63;5056811;28;20072;-86
2021/10/02 04:47:36;;;;;;;23.20;12.20;;;;;;;10.70;100.00;100787.13;5074254;28;20072;-86
2021/10/02 04:50:02;;;;;;;19.98;11.43;;;;;;;10.67;100.00;100775.94;5056336;28;20033;-85
2021/10/02 04:52:28;;;;;;;22.67;12.63;;;;;;;10.58;100.00;100788.41;5056408;28;20027;-84
2021/10/02 04:54:56;;;;;;;24.43;12.00;;;;;;;10.62;100.00;100794.28;5073816;28;20112;-85
2021/10/02 04:57:21;;;;;;;25.58;12.10;;;;;;;10.64;100.00;100795.78;5073385;28;20603;-84
2021/10/02 04:59:47;;;;;;;21.40;11.80;;;;;;;10.68;100.00;100790.97;5055994;28;20040;-83
2021/10/02 05:02:12;;;;;;;23.20;12.43;;;;;;;10.63;100.00;100785.25;5073765;28;20051;-85
2021/10/02 05:04:38;;;;;;;19.37;11.30;;;;;;;10.76;100.00;100801.66;5072722;28;20040;-84
2021/10/02 05:07:03;;;;;;;23.63;11.73;;;;;;;10.72;100.00;100794.97;5056069;28;20301;-85
2021/10/02 05:09:29;;;;;;;22.93;12.57;;;;;;;10.81;100.00;100801.16;5055834;28;20033;-84
2021/10/02 05:11:54;;;;;;;23.27;11.77;;;;;;;10.88;100.00;100788.84;5073693;28;20039;-84
2021/10/02 05:14:20;;;;;;;25.40;11.43;;;;;;;10.80;100.00;100784.31;5055930;28;20067;-85
2021/10/02 05:16:45;;;;;;;25.03;12.80;;;;;;;10.77;100.00;100784.66;5055941;28;20040;-83
2021/10/02 05:19:11;;;;;;;23.70;12.13;;;;;;;10.83;100.00;100792.00;5073001;28;20067;-84
2021/10/02 05:21:36;;;;;;;53.03;12.18;;;;;;;10.85;100.00;100792.66;5073791;28;20090;-83
2021/10/02 05:24:02;;;;;;;25.70;13.03;;;;;;;10.93;100.00;100782.03;5055391;28;20041;-83
2021/10/02 05:26:27;;;;;;;25.33;13.03;;;;;;;10.91;100.00;100785.81;5055165;28;20131;-82
2021/10/02 05:28:53;;;;;;;20.50;12.43;;;;;;;10.91;100.00;100788.50;5071931;28;20353;-83
2021/10/02 05:31:18;;;;;;;30.47;14.90;;;;;;;10.94;100.00;100783.69;5071985;28;20051;-83
2021/10/02 05:33:44;;;;;;;28.53;13.93;;;;;;;10.94;100.00;100767.66;5055396;28;20310;-83
2021/10/02 05:36:09;;;;;;;25.67;14.77;;;;;;;10.95;100.00;100765.81;5054616;28;20055;-80
2021/10/02 05:38:34;;;;;;;27.20;13.40;;;;;;;10.98;100.00;100771.69;5070946;28;20028;-82
2021/10/02 05:41:00;;;;;;;24.60;13.57;;;;;;;11.00;100.00;100768.81;5070635;28;20441;-81
2021/10/02 05:43:26;;;;;;;30.48;14.13;;;;;;;11.02;100.00;100779.34;5055231;28;20085;-84
2021/10/02 05:45:51;;;;;;;27.90;13.93;;;;;;;11.03;100.00;100792.56;5053596;28;20052;-73
2021/10/02 05:48:19;;;;;;;35.45;14.15;;;;;;;11.04;100.00;100788.88;5052940;28;20040;-72
2021/10/02 05:50:45;;;;;;;32.83;17.27;;;;;;;11.03;100.00;100781.00;5069821;28;20051;-72
2021/10/02 05:53:11;;;;;;;35.92;16.63;;;;;;;11.05;100.00;100779.00;5070183;28;20492;-72
2021/10/02 05:55:36;;;;;;;35.85;16.77;;;;;;;11.02;100.00;100785.53;5069683;28;20028;-72
2021/10/02 05:58:02;;;;;;;40.43;17.87;;;;;;;11.02;100.00;100792.72;5052522;28;20094;-72
2021/10/02 06:00:28;;;;;;;37.15;16.63;;;;;;;11.10;100.00;100792.75;5069649;28;20024;-72
2021/10/02 06:02:56;;;;;;;37.53;16.10;;;;;;;11.09;100.00;100793.72;5069960;28;20438;-72
2021/10/02 06:05:26;;;;;;;42.83;16.98;;;;;;;11.04;100.00;100791.53;5069504;28;20045;-72
2021/10/02 06:07:53;;;;;;;44.75;17.58;;;;;;;11.07;100.00;100799.22;5052191;28;20052;-72
2021/10/02 06:10:19;;;;;;;46.88;18.48;;;;;;;11.14;100.00;100802.94;5051308;28;20033;-72
2021/10/02 06:12:45;;;;;;;46.45;19.00;;;;;;;11.20;100.00;100804.09;5052291;28;20544;-72
2021/10/02 06:15:10;;;;;;;43.35;21.33;;;;;;;11.23;100.00;100811.78;5051848;28;20032;-72
2021/10/02 06:17:36;;;;;;;45.42;19.67;;;;;;;11.19;100.00;100800.59;5069362;28;20040;-72
2021/10/02 06:20:02;;;;;;;44.83;19.40;;;;;;;11.26;100.00;100813.28;5069372;28;20036;-72
2021/10/02 06:22:28;;;;;;;;;;;;;;;11.29;100.00;100808.44;5052237;28;20029;-72
2021/10/02 06:24:53;;;;;;;;;;;;;;;11.31;100.00;100824.34;5052149;28;20003;-72
2021/10/02 06:27:19;;;;;;;51.23;21.37;;;;;;;11.16;100.00;100808.09;5069139;28;19916;-72
2021/10/02 06:29:44;;;;;;;48.80;21.02;;;;;;;11.28;100.00;100809.44;5068220;28;20044;-71
2021/10/02 06:32:10;;;;;;;51.53;19.67;;;;;;;11.27;100.00;100812.28;5069106;28;20032;-72
2021/10/02 06:34:35;;;;;;;43.75;18.02;;;;;;;11.32;100.00;100818.81;5069119;28;20032;-71
2021/10/02 06:37:01;;;;;;;47.17;19.50;;;;;;;11.34;100.00;100808.78;5069027;28;20055;-71
2021/10/02 06:39:26;;;;;;;46.60;19.98;;;;;;;11.34;100.00;100806.13;5069012;28;20032;-72
2021/10/02 06:41:52;;;;;;;45.30;20.53;;;;;;;11.35;100.00;100810.44;5068179;28;20024;-71
2021/10/02 06:44:17;;;;;;;52.03;19.13;;;;;;;11.36;100.00;100813.97;5051529;28;20041;-71
2021/10/02 06:46:43;;;;;;;46.03;20.03;;;;;;;11.33;100.00;100809.81;5068735;28;20368;-72
2021/10/02 06:49:08;;;;;;;39.33;20.48;;;;;;;11.41;100.00;100833.84;5050799;28;20464;-71
2021/10/02 06:51:34;;;;;;;40.93;16.20;;;;;;;11.43;100.00;100835.53;5067605;28;20028;-71
2021/10/02 06:53:59;;;;;;;48.40;19.03;;;;;;;11.49;100.00;100834.84;5069003;28;20039;-72
2021/10/02 06:56:25;;;;;;;38.20;18.20;;;;;;;11.52;100.00;100834.50;5067814;28;20043;-72
2021/10/02 06:58:50;;;;;;;34.72;16.65;;;;;;;11.56;100.00;100830.50;5068507;28;20113;-72
2021/10/02 07:01:16;;;;;;;40.83;18.33;;;;;;;11.56;100.00;100819.81;5051109;28;20045;-72
2021/10/02 07:03:41;;;;;;;35.77;17.43;;;;;;;11.59;100.00;100824.84;5050908;28;20071;-72
2021/10/02 07:06:07;;;;;;;37.13;17.67;;;;;;;11.60;100.00;100816.63;5051010;28;20048;-72
2021/10/02 07:08:32;;;;;;;35.53;16.63;;;;;;;11.56;100.00;100809.13;5051012;28;20034;-72
2021/10/02 07:10:58;;;;;;;35.20;17.55;;;;;;;11.53;100.00;100796.94;5050181;28;20107;-72
2021/10/02 07:13:24;;;;;;;39.15;17.33;;;;;;;11.59;100.00;100804.28;5050928;28;20036;-72
2021/10/02 07:15:49;;;;;;;36.67;17.60;;;;;;;11.58;100.00;100791.91;5067508;28;20185;-72
2021/10/02 07:18:17;;;;;;;30.87;15.27;;;;;;;11.52;100.00;100789.91;5067431;28;20197;-72
2021/10/02 07:20:42;;;;;;;38.13;17.05;;;;;;;11.50;100.00;100809.81;5068275;28;20052;-72
2021/10/02 07:23:08;;;;;;;36.58;17.80;;;;;;;11.54;100.00;100816.47;5050864;28;20036;-72
2021/10/02 07:25:33;;;;;;;28.27;14.93;;;;;;;11.54;100.00;100820.00;5067766;28;20072;-73
2021/10/02 07:28:00;;;;;;;24.50;13.37;;;;;;;11.53;100.00;100820.16;5050014;28;20117;-72
2021/10/02 07:30:25;;;;;;;29.98;13.60;;;;;;;11.57;100.00;100806.28;5049899;28;20460;-72
2021/10/02 07:32:51;;;;;;;26.73;13.20;;;;;;;11.59;100.00;100808.81;5066296;28;20040;-72
2021/10/02 07:35:17;;;;;;;19.05;11.43;;;;;;;11.60;100.00;100794.41;5044583;28;20361;-72
2021/10/02 07:37:43;;;;;;;23.80;13.23;;;;;;;11.60;100.00;100802.44;5046096;28;20056;-73
2021/10/02 07:40:11;;;;;;;23.35;12.75;;;;;;;11.60;100.00;100805.13;5063305;28;20124;-72
2021/10/02 07:42:38;;;;;;;21.58;12.07;;;;;;;11.60;100.00;100805.13;5063751;28;20437;-73
2021/10/02 07:45:08;;;;;;;;;;;;;;;11.60;100.00;100805.13;5049806;28;20029;-72
2021/10/02 07:47:39;;;;;;;22.98;11.35;;;;;;;11.59;100.00;100801.63;5067896;28;19966;-72
2021/10/02 07:50:07;;;;;;;21.80;11.75;;;;;;;11.53;100.00;100793.41;5050082;28;20037;-72
2021/10/02 07:52:33;;;;;;;25.55;12.13;;;;;;;11.58;100.00;100804.44;5050424;28;20524;-72
2021/10/02 07:55:04;;;;;;;26.70;12.70;;;;;;;11.51;100.00;100798.94;5067603;28;20028;-72
2021/10/02 07:57:30;;;;;;;25.10;12.20;;;;;;;11.61;100.00;100802.28;5067132;28;20508;-72
2021/10/02 07:59:56;;;;;;;24.88;13.07;;;;;;;11.58;100.00;100807.13;5066913;28;20047;-72
2021/10/02 08:02:23;;;;;;;24.10;12.80;;;;;;;11.61;100.00;100806.78;5068147;28;20035;-72
2021/10/02 08:04:49;;;;;;;31.05;12.95;;;;;;;11.76;100.00;100820.31;5054074;28;20040;-72
2021/10/02 08:07:14;;;;;;;31.45;14.20;;;;;;;11.62;100.00;100811.97;5071700;28;20086;-72
2021/10/02 08:09:41;;;;;;;30.60;14.38;;;;;;;11.69;100.00;100811.31;5053357;28;20123;-72
2021/10/02 08:12:08;;;;;;;28.13;14.93;;;;;;;11.84;100.00;100822.97;5072158;28;20021;-73
2021/10/02 08:14:33;;;;;;;26.92;14.43;;;;;;;11.94;100.00;100821.00;5035990;28;20042;-74
2021/10/02 08:17:00;;;;;;;40.10;16.03;;;;;;;11.89;100.00;100809.13;5080715;28;20222;-73
2021/10/02 08:19:29;;;;;;;38.33;16.88;;;;;;;11.75;100.00;100808.81;5067978;28;20036;-73
2021/10/02 08:21:56;;;;;;;39.15;16.48;;;;;;;11.76;100.00;100805.09;5063137;28;20037;-73
2021/10/02 08:24:23;;;;;;;40.00;16.60;;;;;;;11.73;100.00;100808.13;5084653;28;20103;-73
2021/10/02 08:26:52;;;;;;;39.97;18.05;;;;;;;11.79;100.00;100810.09;5070233;28;20042;-73
2021/10/02 08:29:18;;;;;;;36.42;16.25;;;;;;;11.81;100.00;100800.06;5066697;28;20028;-73
2021/10/02 08:31:44;;;;;;;38.65;16.85;;;;;;;11.96;100.00;100812.78;5070614;28;20040;-73
2021/10/02 08:34:09;;;;;;;40.85;17.90;;;;;;;12.01;100.00;100823.81;5083577;28;20036;-73
2021/10/02 08:36:34;;;;;;;44.33;20.23;;;;;;;11.81;100.00;100809.94;5084598;28;20486;-74
2021/10/02 08:39:00;;;;;;;50.90;19.43;;;;;;;11.76;100.00;100802.44;5068992;28;20159;-73
2021/10/02 08:41:27;;;;;;;50.70;19.98;;;;;;;11.80;100.00;100800.28;5069198;28;20119;-73
2021/10/02 08:43:52;;;;;;;;;;;;;;;11.96;100.00;100794.91;5067565;28;20031;-74
2021/10/02 08:46:18;;;;;;;;;;;;;;;11.92;100.00;100792.75;5053207;28;19916;-73
2021/10/02 08:49:05;;;;;;;51.25;20.05;;;;;;;12.01;100.00;100789.88;5052530;28;19912;-73
2021/10/02 08:51:31;;;;;;;44.42;18.63;;;;;;;12.15;100.00;100783.00;5052822;28;20512;-73
2021/10/02 08:53:59;;;;;;;43.03;20.58;;;;;;;12.25;100.00;100788.16;5034626;28;20469;-73
2021/10/02 08:56:27;;;;;;;42.63;19.88;;;;;;;12.17;100.00;100774.78;5052375;28;20392;-73
2021/10/02 08:58:54;;;;;;;42.17;18.08;;;;;;;12.16;100.00;100768.59;5068933;28;20052;-73
2021/10/02 09:01:19;;;;;;;34.17;17.33;;;;;;;12.30;100.00;100760.88;5052426;28;20032;-73
2021/10/02 09:03:45;;;;;;;34.50;18.43;;;;;;;12.46;100.00;100755.44;5052815;28;20063;-73
2021/10/02 09:06:10;;;;;;;39.67;16.97;;;;;;;12.61;100.00;100753.66;5052509;28;20434;-73
2021/10/02 09:08:35;;;;;;;32.97;17.43;;;;;;;12.25;100.00;100746.16;5068894;28;20040;-73
2021/10/02 09:11:01;;;;;;;42.27;16.63;;;;;;;12.42;100.00;100751.44;5059176;28;20039;-73
2021/10/02 09:13:26;;;;;;;35.70;16.40;;;;;;;12.47;100.00;100757.09;5050536;28;20123;-73
2021/10/02 09:15:52;;;;;;;38.70;18.47;;;;;;;12.50;100.00;100764.78;5082300;28;20020;-73
2021/10/02 09:18:18;;;;;;;45.15;18.67;;;;;;;12.50;100.00;100753.22;5068315;28;20584;-73
2021/10/02 09:20:44;;;;;;;32.90;16.63;;;;;;;12.55;100.00;100756.22;5086326;28;20089;-73
2021/10/02 09:23:10;;;;;;;36.30;18.70;;;;;;;12.59;100.00;100769.09;5072300;28;20556;-73
2021/10/02 09:25:46;;;;;;;41.45;18.42;;;;;;;12.41;100.00;100771.19;5088646;28;20062;-73
2021/10/02 09:28:15;;;;;;;36.08;18.25;;;;;;;12.44;100.00;100768.16;5057885;28;20493;-73
2021/10/02 09:30:43;;;;;;;34.88;18.50;;;;;;;12.61;100.00;100766.25;5031754;28;20036;-73
2021/10/02 09:33:12;;;;;;;36.92;17.75;;;;;;;12.79;100.00;100768.66;5035213;28;20434;-73
2021/10/02 09:35:42;;;;;;;36.67;18.63;;;;;;;12.74;100.00;100760.31;5051776;28;20081;-73
2021/10/02 09:38:10;;;;;;;37.42;16.10;;;;;;;12.76;100.00;100763.63;5035201;28;20033;-73
2021/10/02 09:40:36;;;;;;;31.77;16.38;;;;;;;12.68;100.00;100759.16;5069100;28;20028;-73
2021/10/02 09:43:04;;;;;;;38.03;17.70;;;;;;;12.71;100.00;100749.94;5035046;28;20503;-73
2021/10/02 09:45:38;;;;;;;38.10;17.25;;;;;;;12.77;100.00;100760.78;5034624;28;20037;-73
2021/10/02 09:48:07;;;;;;;32.65;16.58;;;;;;;12.98;100.00;100745.94;5035151;28;20036;-73
2021/10/02 09:50:41;;;;;;;31.48;16.13;;;;;;;13.20;100.00;100744.25;5067646;28;20112;-73
2021/10/02 09:53:12;;;;;;;31.13;16.63;;;;;;;13.34;100.00;100727.41;5069420;28;20060;-73
2021/10/02 09:55:42;;;;;;;31.63;17.25;;;;;;;13.31;100.00;100714.38;5050440;28;20132;-73
2021/10/02 09:58:13;;;;;;;26.85;16.05;;;;;;;13.35;100.00;100710.31;5068931;28;20036;-73
2021/10/02 10:00:42;;;;;;;28.05;16.00;;;;;;;13.54;100.00;100705.44;5034053;28;20047;-74
2021/10/02 10:03:10;;;;;;;27.05;14.70;;;;;;;13.61;99.71;100712.56;5068876;28;20039;-73
2021/10/02 10:05:38;;;;;;;26.65;15.75;;;;;;;13.61;99.65;100709.06;5050767;28;20102;-73
2021/10/02 10:08:06;;;;;;;31.15;16.20;;;;;;;13.40;99.53;100715.97;5051190;28;20032;-74
2021/10/02 10:10:37;;;;;;;27.73;15.07;;;;;;;13.57;99.73;100715.81;5068229;28;20381;-73
2021/10/02 10:13:15;;;;;;;30.25;15.93;;;;;;;13.78;99.43;100718.59;5067673;28;20343;-72
2021/10/02 10:15:46;;;;;;;30.42;15.23;;;;;;;13.83;98.46;100716.19;5050797;28;20047;-73
2021/10/02 10:18:15;;;;;;;24.25;15.20;;;;;;;13.93;97.46;100721.31;5068639;28;20464;-73
2021/10/02 10:21:01;;;;;;;31.55;15.00;;;;;;;13.50;97.31;100729.09;5067990;28;20537;-74
2021/10/02 10:23:43;;;;;;;30.95;15.27;;;;;;;13.45;98.20;100736.88;5045089;28;20036;-73
2021/10/02 10:26:14;;;;;;;27.70;14.98;;;;;;;13.47;99.44;100734.84;5067350;28;20032;-73
2021/10/02 10:28:44;;;;;;;25.17;13.35;;;;;;;13.47;99.35;100741.03;5068211;28;20071;-74
2021/10/02 10:31:29;;;;;;;24.85;15.02;;;;;;;13.29;99.01;100729.78;5031693;28;20642;-73
2021/10/02 10:33:56;;;;;;;;;;;;;;;13.16;100.00;100726.84;5062285;28;20104;-74
2021/10/02 10:36:25;;;;;;;23.55;13.98;;;;;;;13.19;99.98;100723.81;5082825;28;19916;-73
2021/10/02 10:38:51;;;;;;;25.33;14.95;;;;;;;13.29;100.00;100730.63;5082424;28;20028;-73
2021/10/02 10:41:19;;;;;;;21.38;13.85;;;;;;;13.23;100.00;100725.16;5083495;28;20068;-73
2021/10/02 10:43:45;;;;;;;22.40;13.20;;;;;;;13.21;99.75;100717.28;5081825;28;20097;-73
2021/10/02 10:46:13;;;;;;;24.77;12.68;;;;;;;13.36;100.00;100735.28;5066107;28;20456;-73
2021/10/02 10:48:40;;;;;;;24.80;14.43;;;;;;;13.39;99.99;100725.03;5083941;28;20032;-74
2021/10/02 10:51:11;;;;;;;26.65;13.95;;;;;;;13.48;99.78;100726.59;5070009;28;20053;-73
2021/10/02 10:53:43;;;;;;;24.08;13.68;;;;;;;13.43;99.64;100728.16;5064256;28;20032;-73
2021/10/02 10:56:11;;;;;;;24.95;13.70;;;;;;;13.28;99.45;100718.25;5049851;28;20063;-74
2021/10/02 10:58:37;;;;;;;26.45;14.95;;;;;;;13.42;99.68;100721.97;5048440;28;20509;-73
2021/10/02 11:01:05;;;;;;;26.50;14.35;;;;;;;14.65;97.85;100730.50;5069190;28;20123;-74
2021/10/02 11:03:37;;;;;;;21.45;12.15;;;;;;;15.11;90.12;100711.31;5070141;28;20028;-74
2021/10/02 11:06:04;;;;;;;21.48;12.25;;;;;;;14.76;90.50;100713.88;5086810;28;20110;-73
2021/10/02 11:08:48;;;;;;;20.58;13.70;;;;;;;14.26;93.20;100719.06;5087423;28;20036;-73
2021/10/02 11:11:13;;;;;;;20.30;12.52;;;;;;;14.44;92.48;100712.44;5087809;28;20111;-74
2021/10/02 11:13:42;;;;;;;24.27;13.50;;;;;;;14.63;92.65;100725.28;5069928;28;20428;-73
2021/10/02 11:16:35;;;;;;;23.55;11.90;;;;;;;15.35;89.47;100720.81;5086791;28;20036;-73
2021/10/02 11:19:00;;;;;;;20.83;12.90;;;;;;;14.72;88.92;100716.09;5086735;28;20106;-73
2021/10/02 11:21:30;;;;;;;18.10;11.25;;;;;;;15.04;89.53;100721.19;5087589;28;20173;-73
2021/10/02 11:24:03;;;;;;;19.90;13.32;;;;;;;14.84;88.51;100712.91;5069402;28;20044;-73
2021/10/02 11:26:57;;;;;;;21.13;11.65;;;;;;;15.25;87.94;100706.88;5069559;28;20062;-73
2021/10/02 11:29:32;;;;;;;14.80;10.18;;;;;;;16.00;85.38;100711.56;5069433;28;20036;-73
2021/10/02 11:32:29;;;;;;;17.77;9.55;;;;;;;16.08;82.53;100704.34;5087535;28;20097;-73
2021/10/02 11:35:22;;;;;;;16.88;9.77;;;;;;;15.88;83.55;100698.88;5068919;28;20044;-73
2021/10/02 11:37:56;;;;;;;14.43;8.65;;;;;;;15.85;83.35;100708.19;5069354;28;20078;-73
2021/10/02 11:40:40;;;;;;;11.57;7.88;;;;;;;15.40;84.54;100708.47;5084178;28;20063;-74
2021/10/02 11:43:15;;;;;;;11.70;8.00;;;;;;;15.50;85.20;100710.81;5080857;28;20131;-73
2021/10/02 11:45:44;;;;;;;13.70;9.18;;;;;;;15.35;84.81;100699.31;5063190;28;20065;-73
2021/10/02 11:48:17;;;;;;;10.57;8.23;;;;;;;15.42;84.75;100692.13;5087212;28;20379;-73
2021/10/02 11:50:48;;;;;;;12.38;8.80;;;;;;;15.77;84.53;100689.50;5086859;28;20050;-74
2021/10/02 11:53:17;;;;;;;11.55;8.73;;;;;;;15.33;84.46;100683.34;5086452;28;20625;-73
2021/10/02 11:55:43;;;;;;;12.77;8.35;;;;;;;15.08;85.38;100692.88;5085628;28;20031;-74
2021/10/02 11:58:09;;;;;;;11.80;8.47;;;;;;;15.36;85.20;100684.84;5079411;28;20044;-74
2021/10/02 12:00:36;;;;;;;14.00;8.45;;;;;;;15.40;85.29;100669.97;5060088;28;20107;-74
2021/10/02 12:03:03;;;;;;;15.25;7.10;;;;;;;15.80;83.24;100673.78;5067212;28;20020;-74
2021/10/02 12:05:29;;;;;;;12.35;7.85;;;;;;;15.69;83.15;100666.22;5080256;28;20043;-74
2021/10/02 12:07:55;;;;;;;13.02;7.53;;;;;;;15.93;83.66;100666.81;5077780;28;20044;-74
2021/10/02 12:10:21;;;;;;;12.57;7.15;;;;;;;15.82;82.36;100655.53;5061989;28;20033;-74